createdAt,value
2022-08-27T00:01:49.414Z,7.32
2022-08-27T00:04:19.050Z,6.75
2022-08-27T00:06:47.166Z,6.55
2022-08-27T00:09:15.712Z,6.68
2022-08-27T00:11:44.818Z,6.88
2022-08-27T00:14:12.960Z,7.93
2022-08-27T00:16:41.258Z,7.82
2022-08-27T00:19:09.375Z,7.30
2022-08-27T00:21:39.256Z,6.57
2022-08-27T00:24:07.588Z,7.53
2022-08-27T00:26:38.140Z,8.52
2022-08-27T00:29:09.573Z,8.32
2022-08-27T00:31:37.738Z,7.40
2022-08-27T00:34:06.005Z,7.53
2022-08-27T00:36:35.701Z,7.38
2022-08-27T00:39:05.853Z,8.30
2022-08-27T00:41:34.136Z,7.80
2022-08-27T00:44:03.412Z,8.27
2022-08-27T00:46:36.094Z,7.95
2022-08-27T00:49:09.228Z,9.10
2022-08-27T00:51:38.349Z,8.10
2022-08-27T00:54:09.606Z,7.68
2022-08-27T00:56:44.411Z,9.15
2022-08-27T00:59:20.190Z,8.40
2022-08-27T01:02:05.803Z,8.50
2022-08-27T01:04:35.325Z,10.27
2022-08-27T01:07:04.241Z,9.55
2022-08-27T01:09:34.163Z,8.10
2022-08-27T01:12:02.205Z,8.88
2022-08-27T01:14:30.473Z,8.32
2022-08-27T01:17:01.351Z,8.95
2022-08-27T01:19:34.729Z,8.27
2022-08-27T01:22:09.426Z,8.65
2022-08-27T01:24:53.325Z,8.75
2022-08-27T01:27:23.752Z,9.68
2022-08-27T01:29:52.360Z,9.00
2022-08-27T01:32:22.549Z,8.57
2022-08-27T01:34:50.990Z,8.80
2022-08-27T01:37:23.896Z,8.88
2022-08-27T01:39:55.232Z,8.25
2022-08-27T01:42:26.182Z,8.75
2022-08-27T01:44:58.264Z,8.65
2022-08-27T01:47:30.621Z,8.35
2022-08-27T01:50:00.341Z,8.23
2022-08-27T01:52:31.761Z,8.02
2022-08-27T01:55:01.753Z,8.38
2022-08-27T01:57:29.890Z,8.02
2022-08-27T01:59:58.271Z,8.40
2022-08-27T02:02:27.071Z,8.18
2022-08-27T02:04:55.112Z,8.43
2022-08-27T02:07:23.251Z,8.32
2022-08-27T02:09:52.183Z,8.23
2022-08-27T02:12:21.597Z,8.95
2022-08-27T02:14:49.642Z,8.15
2022-08-27T02:17:17.742Z,8.15
2022-08-27T02:19:45.871Z,8.32
2022-08-27T02:22:13.908Z,7.78
2022-08-27T02:24:42.218Z,8.60
2022-08-27T02:27:10.824Z,8.10
2022-08-27T02:29:40.410Z,8.07
2022-08-27T02:32:17.754Z,8.43
2022-08-27T02:34:56.592Z,9.45
2022-08-27T02:37:24.692Z,8.57
2022-08-27T02:39:52.708Z,9.65
2022-08-27T02:42:21.074Z,10.20
2022-08-27T02:44:50.553Z,10.98
2022-08-27T02:47:18.774Z,9.82
2022-08-27T02:49:46.772Z,10.35
2022-08-27T02:52:14.786Z,8.90
2022-08-27T02:54:44.063Z,8.95
2022-08-27T02:57:12.403Z,9.07
2022-08-27T02:59:40.419Z,8.00
2022-08-27T03:02:10.875Z,8.60
2022-08-27T03:04:39.134Z,10.18
2022-08-27T03:07:07.231Z,9.93
2022-08-27T03:09:42.175Z,9.07
2022-08-27T03:12:10.248Z,8.80
2022-08-27T03:14:38.257Z,10.93
2022-08-27T03:17:20.062Z,10.20
2022-08-27T03:19:50.430Z,9.70
2022-08-27T03:22:18.418Z,9.80
2022-08-27T03:24:46.957Z,9.38
2022-08-27T03:27:16.599Z,9.25
2022-08-27T03:29:44.550Z,9.85
2022-08-27T03:32:12.548Z,9.52
2022-08-27T03:34:40.603Z,9.32
2022-08-27T03:37:09.988Z,9.18
2022-08-27T03:39:38.086Z,9.48
2022-08-27T03:42:06.688Z,9.73
2022-08-27T03:44:34.632Z,9.65
2022-08-27T03:47:02.619Z,9.95
2022-08-27T03:49:31.629Z,9.02
2022-08-27T03:52:01.235Z,7.97
2022-08-27T03:54:31.304Z,9.20
2022-08-27T03:56:59.373Z,10.05
2022-08-27T03:59:27.356Z,8.95
2022-08-27T04:01:55.415Z,8.32
2022-08-27T04:04:24.239Z,8.60
2022-08-27T04:06:52.417Z,9.15
2022-08-27T04:09:20.493Z,10.25
2022-08-27T04:11:49.922Z,10.35
2022-08-27T04:14:26.501Z,10.00
2022-08-27T04:16:56.235Z,9.57
2022-08-27T04:19:27.644Z,9.00
2022-08-27T04:22:00.314Z,8.13
2022-08-27T04:24:28.431Z,8.65
2022-08-27T04:26:57.804Z,8.75
2022-08-27T04:29:25.756Z,9.70
2022-08-27T04:31:53.853Z,10.75
2022-08-27T04:34:22.093Z,11.10
2022-08-27T04:36:50.315Z,9.80
2022-08-27T04:39:20.683Z,10.35
2022-08-27T04:41:50.649Z,9.43
2022-08-27T04:44:20.223Z,10.57
2022-08-27T04:46:49.550Z,10.45
2022-08-27T04:49:18.535Z,11.95
2022-08-27T04:51:48.384Z,10.70
2022-08-27T04:54:17.320Z,10.65
2022-08-27T04:56:45.364Z,11.52
2022-08-27T04:59:13.875Z,12.18
2022-08-27T05:01:43.917Z,13.00
2022-08-27T05:04:15.769Z,11.77
2022-08-27T05:06:46.094Z,12.25
2022-08-27T05:09:14.989Z,11.13
2022-08-27T05:11:43.538Z,13.13
2022-08-27T05:14:15.448Z,12.65
2022-08-27T05:16:44.808Z,13.45
2022-08-27T05:19:14.637Z,14.25
2022-08-27T05:21:47.096Z,14.00
2022-08-27T05:24:16.480Z,14.05
2022-08-27T05:26:44.742Z,12.48
2022-08-27T05:29:12.834Z,14.45
2022-08-27T05:31:41.599Z,14.63
2022-08-27T05:34:15.316Z,13.63
2022-08-27T05:36:53.233Z,13.33
2022-08-27T05:39:21.301Z,13.90
2022-08-27T05:41:49.468Z,12.90
2022-08-27T05:44:40.718Z,13.65
2022-08-27T05:47:05.922Z,14.35
2022-08-27T05:49:35.357Z,15.00
2022-08-27T05:52:03.798Z,13.02
2022-08-27T05:54:31.778Z,14.80
2022-08-27T05:56:59.786Z,17.05
2022-08-27T05:59:44.935Z,15.18
2022-08-27T06:02:12.960Z,15.13
2022-08-27T06:04:42.424Z,15.00
2022-08-27T06:07:11.038Z,15.07
2022-08-27T06:09:39.344Z,16.58
2022-08-27T06:12:08.825Z,14.63
2022-08-27T06:14:37.525Z,15.55
2022-08-27T06:17:06.438Z,15.85
2022-08-27T06:19:34.851Z,14.40
2022-08-27T06:22:10.640Z,14.82
2022-08-27T06:24:40.511Z,15.38
2022-08-27T06:27:11.334Z,15.43
2022-08-27T06:29:39.663Z,15.38
2022-08-27T06:32:07.848Z,15.93
2022-08-27T06:34:36.089Z,15.25
2022-08-27T06:37:05.637Z,14.55
2022-08-27T06:39:33.619Z,14.27
2022-08-27T06:42:01.599Z,16.10
2022-08-27T06:44:29.633Z,16.65
2022-08-27T06:46:57.747Z,16.20
2022-08-27T06:49:25.676Z,16.30
2022-08-27T06:51:53.698Z,16.10
2022-08-27T06:54:23.128Z,15.75
2022-08-27T06:56:51.132Z,16.48
2022-08-27T06:59:20.789Z,15.90
2022-08-27T07:01:51.522Z,18.00
2022-08-27T07:04:22.575Z,17.50
2022-08-27T07:06:58.803Z,18.50
2022-08-27T07:09:30.684Z,18.70
2022-08-27T07:11:58.794Z,17.05
2022-08-27T07:14:26.827Z,18.58
2022-08-27T07:16:55.429Z,18.70
2022-08-27T07:19:23.572Z,18.38
2022-08-27T07:21:51.851Z,18.48
2022-08-27T07:24:19.841Z,20.27
2022-08-27T07:26:49.200Z,18.25
2022-08-27T07:29:17.391Z,19.23
2022-08-27T07:31:45.407Z,19.70
2022-08-27T07:34:13.380Z,20.75
2022-08-27T07:36:41.471Z,19.77
2022-08-27T07:39:09.800Z,21.42
2022-08-27T07:41:58.502Z,19.27
2022-08-27T07:44:33.055Z,20.55
2022-08-27T07:47:03.017Z,21.42
2022-08-27T07:49:35.019Z,22.23
2022-08-27T07:52:03.400Z,20.00
2022-08-27T07:54:31.426Z,15.30
2022-08-27T07:56:59.523Z,15.30
2022-08-27T07:59:29.110Z,20.13
2022-08-27T08:01:57.729Z,21.80
2022-08-27T08:04:26.792Z,22.60
2022-08-27T08:06:55.707Z,21.77
2022-08-27T08:09:25.158Z,20.70
2022-08-27T08:11:54.350Z,22.33
2022-08-27T08:14:23.126Z,21.80
2022-08-27T08:16:52.782Z,22.63
2022-08-27T08:19:20.903Z,22.63
2022-08-27T08:21:49.093Z,22.05
2022-08-27T08:24:17.307Z,20.15
2022-08-27T08:26:45.545Z,22.27
2022-08-27T08:29:17.954Z,19.35
2022-08-27T08:31:50.125Z,24.00
2022-08-27T08:34:20.512Z,24.00
2022-08-27T08:36:54.672Z,22.48
2022-08-27T08:39:23.490Z,23.90
2022-08-27T08:41:55.237Z,22.27
2022-08-27T08:45:14.271Z,24.38
2022-08-27T08:47:48.332Z,21.92
2022-08-27T08:50:22.429Z,21.75
2022-08-27T08:53:01.310Z,20.73
2022-08-27T08:55:39.000Z,23.67
2022-08-27T08:58:13.930Z,22.20
2022-08-27T09:00:45.445Z,22.10
2022-08-27T09:03:15.451Z,22.15
2022-08-27T09:05:50.872Z,19.33
2022-08-27T09:08:36.738Z,21.95
2022-08-27T09:11:15.439Z,21.15
2022-08-27T09:13:48.445Z,21.20
2022-08-27T09:16:16.509Z,20.33
2022-08-27T09:18:45.806Z,20.83
2022-08-27T09:21:28.268Z,19.02
2022-08-27T09:24:15.014Z,20.02
2022-08-27T09:26:44.935Z,20.95
2022-08-27T09:29:20.535Z,21.05
2022-08-27T09:31:55.624Z,22.20
2022-08-27T09:34:24.473Z,20.60
2022-08-27T09:37:00.285Z,22.65
2022-08-27T09:39:36.966Z,20.52
2022-08-27T09:42:06.110Z,20.40
2022-08-27T09:44:34.322Z,19.30
2022-08-27T09:47:04.721Z,19.20
2022-08-27T09:49:36.934Z,19.77
2022-08-27T09:52:06.649Z,19.60
2022-08-27T09:54:42.067Z,19.23
2022-08-27T09:57:13.310Z,18.10
2022-08-27T09:59:44.786Z,18.23
2022-08-27T10:02:22.009Z,18.38
2022-08-27T10:04:52.744Z,16.27
2022-08-27T10:07:52.503Z,16.90
2022-08-27T10:10:24.858Z,15.48
2022-08-27T10:12:57.887Z,14.95
2022-08-27T10:15:30.418Z,15.60
2022-08-27T10:18:12.418Z,16.50
2022-08-27T10:20:48.540Z,14.65
2022-08-27T10:23:28.020Z,14.00
2022-08-27T10:26:05.453Z,15.88
2022-08-27T10:28:44.950Z,18.23
2022-08-27T10:31:32.971Z,15.73
2022-08-27T10:34:22.035Z,16.15
2022-08-27T10:37:07.263Z,13.88
2022-08-27T10:39:50.910Z,13.93
2022-08-27T10:42:26.371Z,12.63
2022-08-27T10:45:08.512Z,12.90
2022-08-27T10:48:05.300Z,13.20
2022-08-27T10:50:41.448Z,12.23
2022-08-27T10:53:17.674Z,11.68
2022-08-27T10:55:54.164Z,10.10
2022-08-27T10:58:32.379Z,10.25
2022-08-27T11:01:07.352Z,11.32
2022-08-27T11:03:41.350Z,11.13
2022-08-27T11:06:17.686Z,10.00
2022-08-27T11:08:50.875Z,9.43
2022-08-27T11:12:10.321Z,9.75
2022-08-27T11:14:29.558Z,10.55
2022-08-27T11:17:04.680Z,10.63
2022-08-27T11:19:42.131Z,10.32
2022-08-27T11:22:17.980Z,9.93
2022-08-27T11:25:00.996Z,14.43
2022-08-27T11:27:33.622Z,13.93
2022-08-27T11:30:06.829Z,13.60
2022-08-27T11:32:46.204Z,12.40
2022-08-27T11:35:22.636Z,12.15
2022-08-27T11:38:17.478Z,10.90
2022-08-27T11:40:59.029Z,10.65
2022-08-27T11:43:33.875Z,10.55
2022-08-27T11:46:05.066Z,10.52
2022-08-27T11:48:37.060Z,10.05
2022-08-27T11:51:08.890Z,9.63
2022-08-27T11:53:52.080Z,8.98
2022-08-27T11:56:37.055Z,8.80
2022-08-27T11:59:13.130Z,9.60
2022-08-27T12:01:41.138Z,8.68
2022-08-27T12:04:22.597Z,8.65
2022-08-27T12:06:54.981Z,8.45
2022-08-27T12:09:24.611Z,8.95
2022-08-27T12:12:04.545Z,9.10
2022-08-27T12:14:46.992Z,9.68
2022-08-27T12:17:25.766Z,9.60
2022-08-27T12:20:07.451Z,8.98
2022-08-27T12:23:18.959Z,9.20
2022-08-27T12:25:57.664Z,9.48
2022-08-27T12:28:27.022Z,10.13
2022-08-27T12:30:58.726Z,9.75
2022-08-27T12:33:33.145Z,10.93
2022-08-27T12:36:11.068Z,12.27
2022-08-27T12:38:50.321Z,12.50
2022-08-27T12:41:27.258Z,12.82
2022-08-27T12:44:05.810Z,12.25
2022-08-27T12:46:39.738Z,12.15
2022-08-27T12:49:10.100Z,13.90
2022-08-27T12:51:59.378Z,13.93
2022-08-27T12:54:44.340Z,13.63
2022-08-27T12:57:23.609Z,13.32
2022-08-27T13:00:08.219Z,14.10
2022-08-27T13:02:50.152Z,14.35
2022-08-27T13:05:21.338Z,15.48
2022-08-27T13:07:51.887Z,16.13
2022-08-27T13:10:22.378Z,14.75
2022-08-27T13:13:01.458Z,14.82
2022-08-27T13:15:29.505Z,17.42
2022-08-27T13:17:58.882Z,15.88
2022-08-27T13:20:31.464Z,16.95
2022-08-27T13:22:59.451Z,15.05
2022-08-27T13:25:30.929Z,14.82
2022-08-27T13:28:07.963Z,15.85
2022-08-27T13:30:38.600Z,15.40
2022-08-27T13:33:11.988Z,16.35
2022-08-27T13:38:11.082Z,14.07
2022-08-27T13:40:55.319Z,9.30
2022-08-27T13:43:32.150Z,7.72
2022-08-27T13:46:03.730Z,8.55
2022-08-27T13:48:35.329Z,8.02
2022-08-27T13:51:03.297Z,7.90
2022-08-27T13:53:50.833Z,6.13
2022-08-27T13:56:30.027Z,7.15
2022-08-27T13:59:09.283Z,7.05
2022-08-27T14:01:44.844Z,9.68
2022-08-27T14:04:26.428Z,8.30
2022-08-27T14:06:56.471Z,8.05
2022-08-27T14:09:31.097Z,8.05
2022-08-27T14:12:02.185Z,8.70
2022-08-27T14:14:31.638Z,7.80
2022-08-27T14:17:01.360Z,8.27
2022-08-27T14:19:36.301Z,8.15
2022-08-27T14:22:05.570Z,8.70
2022-08-27T14:24:33.488Z,8.25
2022-08-27T14:27:06.998Z,8.23
2022-08-27T14:29:34.950Z,8.50
2022-08-27T14:32:02.992Z,7.50
2022-08-27T14:34:32.670Z,8.88
2022-08-27T14:37:00.746Z,8.00
2022-08-27T14:39:28.787Z,8.73
2022-08-27T14:41:56.867Z,8.13
2022-08-27T14:44:25.404Z,8.05
2022-08-27T14:46:54.625Z,9.02
2022-08-27T14:49:27.405Z,9.27
2022-08-27T14:51:56.862Z,9.20
2022-08-27T14:54:29.123Z,8.55
2022-08-27T14:57:02.898Z,8.07
2022-08-27T14:59:31.462Z,9.32
2022-08-27T15:02:01.561Z,8.43
2022-08-27T15:04:30.587Z,9.65
2022-08-27T15:07:04.641Z,8.45
2022-08-27T15:09:32.660Z,9.55
2022-08-27T15:12:01.222Z,10.27
2022-08-27T15:14:33.035Z,9.88
2022-08-27T15:17:01.541Z,9.35
2022-08-27T15:19:39.335Z,9.30
2022-08-27T15:22:18.018Z,9.98
2022-08-27T15:24:48.249Z,9.30
2022-08-27T15:27:16.653Z,9.40
2022-08-27T15:29:45.385Z,9.80
2022-08-27T15:32:24.421Z,8.98
2022-08-27T15:34:57.342Z,8.90
2022-08-27T15:37:30.602Z,8.98
2022-08-27T15:39:58.874Z,9.73
2022-08-27T15:42:27.212Z,10.27
2022-08-27T15:44:58.060Z,10.50
2022-08-27T15:47:27.179Z,11.48
2022-08-27T15:49:55.176Z,10.65
2022-08-27T15:52:24.373Z,11.50
2022-08-27T15:54:53.747Z,10.32
2022-08-27T15:57:22.401Z,10.63
2022-08-27T15:59:50.885Z,9.68
2022-08-27T16:02:21.884Z,8.20
2022-08-27T16:04:51.077Z,8.70
2022-08-27T16:07:21.043Z,9.85
2022-08-27T16:09:49.587Z,9.05
2022-08-27T16:12:27.051Z,10.38
2022-08-27T16:14:55.673Z,9.50
2022-08-27T16:17:24.227Z,9.32
2022-08-27T16:19:52.350Z,10.07
2022-08-27T16:22:20.391Z,8.07
2022-08-27T16:24:48.375Z,7.28
2022-08-27T16:27:16.592Z,7.70
2022-08-27T16:29:45.967Z,7.50
2022-08-27T16:32:19.015Z,7.38
2022-08-27T16:34:55.666Z,6.68
2022-08-27T16:37:24.272Z,6.07
2022-08-27T16:39:52.497Z,5.80
2022-08-27T16:42:21.067Z,5.72
2022-08-27T16:44:51.070Z,5.47
2022-08-27T16:47:19.119Z,5.20
2022-08-27T16:50:04.575Z,4.95
2022-08-27T16:52:32.889Z,4.90
2022-08-27T16:55:00.878Z,4.43
2022-08-27T16:57:29.355Z,5.15
2022-08-27T16:59:59.040Z,4.50
2022-08-27T17:02:31.046Z,4.50
2022-08-27T17:05:07.206Z,4.55
2022-08-27T17:07:48.803Z,4.93
2022-08-27T17:10:17.718Z,4.82
2022-08-27T17:12:47.241Z,5.13
2022-08-27T17:15:18.184Z,5.15
2022-08-27T17:17:46.918Z,5.50
2022-08-27T17:20:15.923Z,5.05
2022-08-27T17:22:44.484Z,5.03
2022-08-27T17:25:12.522Z,5.18
2022-08-27T17:27:40.544Z,5.05
2022-08-27T17:30:10.501Z,4.65
2022-08-27T17:32:43.883Z,5.00
2022-08-27T17:37:42.642Z,4.25
2022-08-27T17:40:11.512Z,4.40
2022-08-27T17:42:39.858Z,4.40
2022-08-27T17:45:09.149Z,5.00
2022-08-27T17:47:37.178Z,4.78
2022-08-27T17:50:07.372Z,5.03
2022-08-27T17:52:36.656Z,5.00
2022-08-27T17:55:05.351Z,5.20
2022-08-27T17:57:40.358Z,5.65
2022-08-27T18:00:12.154Z,5.05
2022-08-27T18:02:44.322Z,5.55
2022-08-27T18:05:15.446Z,6.93
2022-08-27T18:07:45.283Z,9.35
2022-08-27T18:10:15.807Z,9.80
2022-08-27T18:12:45.220Z,10.02
2022-08-27T18:15:19.135Z,9.65
2022-08-27T18:17:49.607Z,10.55
2022-08-27T18:20:24.993Z,10.25
2022-08-27T18:22:53.300Z,9.68
2022-08-27T18:25:24.730Z,9.68
2022-08-27T18:27:56.749Z,10.15
2022-08-27T18:30:25.333Z,9.38
2022-08-27T18:32:54.268Z,10.05
2022-08-27T18:35:26.961Z,10.13
2022-08-27T18:37:56.310Z,10.13
2022-08-27T18:40:27.868Z,10.02
2022-08-27T18:42:56.660Z,9.98
2022-08-27T18:45:28.573Z,10.27
2022-08-27T18:48:29.868Z,10.30
2022-08-27T18:51:02.547Z,10.98
2022-08-27T18:53:43.920Z,11.18
2022-08-27T18:57:19.872Z,10.90
2022-08-27T19:02:52.417Z,10.20
2022-08-27T19:05:25.275Z,10.35
2022-08-27T19:07:59.472Z,9.63
2022-08-27T19:10:27.841Z,10.68
2022-08-27T19:12:56.317Z,12.18
2022-08-27T19:15:24.539Z,11.60
2022-08-27T19:17:57.012Z,10.82
2022-08-27T19:20:27.642Z,9.70
2022-08-27T19:22:57.709Z,9.20
2022-08-27T19:25:25.911Z,9.77
2022-08-27T19:27:55.224Z,9.35
2022-08-27T19:33:12.057Z,8.95
2022-08-27T19:35:41.935Z,8.63
2022-08-27T19:38:13.495Z,10.10
2022-08-27T19:40:42.536Z,8.85
2022-08-27T19:43:10.863Z,8.70
2022-08-27T19:45:40.310Z,9.18
2022-08-27T19:48:08.913Z,9.30
2022-08-27T19:50:37.169Z,8.73
2022-08-27T19:53:05.962Z,9.88
2022-08-27T19:55:36.508Z,9.25
2022-08-27T19:58:05.670Z,8.95
2022-08-27T20:00:34.717Z,8.30
2022-08-27T20:03:03.026Z,8.60
2022-08-27T20:05:31.325Z,7.80
2022-08-27T20:07:59.679Z,7.88
2022-08-27T20:10:36.020Z,8.15
2022-08-27T20:13:06.204Z,8.20
2022-08-27T20:15:34.799Z,8.43
2022-08-27T20:18:05.260Z,8.10
2022-08-27T20:20:34.287Z,8.25
2022-08-27T20:23:05.308Z,8.45
2022-08-27T20:25:35.343Z,8.90
2022-08-27T20:28:21.945Z,9.02
2022-08-27T20:30:53.472Z,8.48
2022-08-27T20:33:21.542Z,8.98
2022-08-27T20:35:49.880Z,8.93
2022-08-27T20:38:20.496Z,8.48
2022-08-27T20:40:48.982Z,7.53
2022-08-27T20:43:17.344Z,7.60
2022-08-27T20:45:45.984Z,7.70
2022-08-27T20:48:15.815Z,7.93
2022-08-27T20:50:44.211Z,7.13
2022-08-27T20:53:13.041Z,8.27
2022-08-27T20:55:41.529Z,7.80
2022-08-27T20:58:27.204Z,7.22
2022-08-27T21:00:56.196Z,8.27
2022-08-27T21:03:26.159Z,8.43
2022-08-27T21:05:54.109Z,8.88
2022-08-27T21:08:23.450Z,7.97
2022-08-27T21:10:54.957Z,7.82
2022-08-27T21:13:23.834Z,7.75
2022-08-27T21:15:54.615Z,7.88
2022-08-27T21:18:29.686Z,7.93
2022-08-27T21:20:58.209Z,7.38
2022-08-27T21:23:27.817Z,7.68
2022-08-27T21:25:55.934Z,6.78
2022-08-27T21:28:24.040Z,7.50
2022-08-27T21:30:52.109Z,6.93
2022-08-27T21:33:20.090Z,6.93
2022-08-27T21:35:49.580Z,7.93
2022-08-27T21:38:17.726Z,8.35
2022-08-27T21:40:45.773Z,7.15
2022-08-27T21:43:13.805Z,7.53
2022-08-27T21:45:43.092Z,7.35
2022-08-27T21:48:11.246Z,7.10
2022-08-27T21:50:39.345Z,6.82
2022-08-27T21:53:08.851Z,7.00
2022-08-27T21:55:36.822Z,6.50
2022-08-27T21:58:04.894Z,6.55
2022-08-27T22:00:41.398Z,6.75
2022-08-27T22:03:13.522Z,6.28
2022-08-27T22:05:43.657Z,7.32
2022-08-27T22:08:14.801Z,7.15
2022-08-27T22:10:44.257Z,7.60
2022-08-27T22:13:13.192Z,7.30
2022-08-27T22:15:41.225Z,7.28
2022-08-27T22:18:09.751Z,7.75
2022-08-27T22:20:38.349Z,8.10
2022-08-27T22:23:06.928Z,8.18
2022-08-27T22:25:36.885Z,7.85
2022-08-27T22:28:05.561Z,7.85
2022-08-27T22:30:33.776Z,7.85
2022-08-27T22:33:01.888Z,8.15
2022-08-27T22:35:29.968Z,7.47
2022-08-27T22:37:57.968Z,8.15
2022-08-27T22:40:28.906Z,8.10
2022-08-27T22:42:58.664Z,8.23
2022-08-27T22:45:28.448Z,8.60
2022-08-27T22:47:56.706Z,7.88
2022-08-27T22:50:24.936Z,8.75
2022-08-27T22:52:53.266Z,7.50
2022-08-27T22:55:23.023Z,9.50
2022-08-27T22:57:54.300Z,8.25
2022-08-27T23:00:27.141Z,7.25
2022-08-27T23:02:55.569Z,8.07
2022-08-27T23:05:24.534Z,8.07
2022-08-27T23:07:54.861Z,7.22
2022-08-27T23:10:25.361Z,6.47
2022-08-27T23:12:54.335Z,7.15
2022-08-27T23:15:26.381Z,6.70
2022-08-27T23:17:54.607Z,6.78
2022-08-27T23:20:23.058Z,6.45
2022-08-27T23:22:52.721Z,6.25
2022-08-27T23:25:35.760Z,6.05
2022-08-27T23:28:12.327Z,6.27
2022-08-27T23:30:44.453Z,6.72
2022-08-27T23:33:12.839Z,6.22
2022-08-27T23:35:44.366Z,6.68
2022-08-27T23:38:12.713Z,7.00
2022-08-27T23:40:41.054Z,6.85
2022-08-27T23:43:09.140Z,7.70
2022-08-27T23:45:40.489Z,6.45
2022-08-27T23:48:10.728Z,6.90
2022-08-27T23:50:39.566Z,5.97
2022-08-27T23:53:09.092Z,6.97
2022-08-27T23:55:38.691Z,7.97
2022-08-27T23:58:07.752Z,7.93
